createdAt,value
2022-09-23T00:01:38.372Z,18.34
2022-09-23T00:04:01.778Z,18.31
2022-09-23T00:06:25.011Z,18.35
2022-09-23T00:08:49.557Z,18.16
2022-09-23T00:11:14.374Z,17.29
2022-09-23T00:13:37.744Z,17.03
2022-09-23T00:16:03.851Z,16.88
2022-09-23T00:18:27.105Z,16.86
2022-09-23T00:20:50.253Z,17.06
2022-09-23T00:23:13.471Z,17.52
2022-09-23T00:25:36.625Z,17.35
2022-09-23T00:28:01.840Z,16.91
2022-09-23T00:30:25.082Z,16.69
2022-09-23T00:32:48.422Z,16.58
2022-09-23T00:35:11.535Z,17.12
2022-09-23T00:37:34.734Z,17.51
2022-09-23T00:40:00.045Z,17.79
2022-09-23T00:42:23.753Z,17.98
2022-09-23T00:44:49.458Z,18.08
2022-09-23T00:47:14.829Z,18.17
2022-09-23T00:49:38.012Z,18.23
2022-09-23T00:52:06.525Z,18.28
2022-09-23T00:54:29.739Z,18.33
2022-09-23T00:56:52.896Z,18.24
2022-09-23T00:59:16.081Z,17.76
2022-09-23T01:01:40.886Z,17.44
2022-09-23T01:04:04.134Z,17.28
2022-09-23T01:06:29.238Z,17.67
2022-09-23T01:08:52.509Z,17.40
2022-09-23T01:11:25.369Z,17.48
2022-09-23T01:13:53.685Z,17.57
2022-09-23T01:16:19.875Z,17.31
2022-09-23T01:18:47.589Z,16.95
2022-09-23T01:21:29.073Z,16.73
2022-09-23T01:24:21.846Z,17.05
2022-09-23T01:27:07.958Z,16.93
2022-09-23T01:30:08.406Z,16.82
2022-09-23T01:32:37.708Z,17.03
2022-09-23T01:35:04.186Z,17.26
2022-09-23T01:37:29.626Z,17.09
2022-09-23T01:39:54.962Z,17.07
2022-09-23T01:42:19.007Z,16.76
2022-09-23T01:44:44.025Z,16.91
2022-09-23T01:47:11.078Z,17.36
2022-09-23T01:49:36.606Z,17.43
2022-09-23T01:52:01.298Z,17.62
2022-09-23T01:54:26.336Z,17.82
2022-09-23T01:56:52.468Z,17.95
2022-09-23T01:59:18.039Z,17.72
2022-09-23T02:01:43.174Z,17.26
2022-09-23T02:04:09.206Z,17.04
2022-09-23T02:06:35.926Z,17.02
2022-09-23T02:09:02.345Z,16.89
2022-09-23T02:11:25.625Z,17.08
2022-09-23T02:13:50.225Z,17.41
2022-09-23T02:16:15.605Z,17.21
2022-09-23T02:18:42.098Z,17.25
2022-09-23T02:21:06.959Z,16.93
2022-09-23T02:23:34.850Z,16.78
2022-09-23T02:25:59.584Z,16.62
2022-09-23T02:28:25.705Z,16.81
2022-09-23T02:30:50.162Z,16.85
2022-09-23T02:33:13.647Z,16.88
2022-09-23T02:35:38.158Z,16.70
2022-09-23T02:38:03.819Z,16.54
2022-09-23T02:40:31.138Z,16.45
2022-09-23T02:42:59.236Z,16.70
2022-09-23T02:45:22.375Z,17.00
2022-09-23T02:47:46.218Z,17.02
2022-09-23T02:50:10.490Z,16.97
2022-09-23T02:52:33.783Z,17.37
2022-09-23T02:54:57.190Z,17.63
2022-09-23T02:57:21.736Z,17.41
2022-09-23T02:59:44.673Z,17.61
2022-09-23T03:02:23.319Z,17.36
2022-09-23T03:04:50.499Z,17.17
2022-09-23T03:07:15.420Z,17.50
2022-09-23T03:09:43.135Z,17.69
2022-09-23T03:12:11.213Z,17.54
2022-09-23T03:14:39.413Z,17.71
2022-09-23T03:17:03.843Z,17.52
2022-09-23T03:19:28.669Z,16.98
2022-09-23T03:21:56.399Z,16.84
2022-09-23T03:24:19.521Z,16.61
2022-09-23T03:26:45.225Z,16.76
2022-09-23T03:29:11.316Z,16.52
2022-09-23T03:31:35.982Z,16.65
2022-09-23T03:34:00.689Z,16.65
2022-09-23T03:36:43.145Z,16.91
2022-09-23T03:39:08.054Z,17.05
2022-09-23T03:41:35.109Z,16.82
2022-09-23T03:43:58.786Z,16.48
2022-09-23T03:46:22.355Z,16.59
2022-09-23T03:48:46.914Z,16.79
2022-09-23T03:51:16.160Z,17.02
2022-09-23T03:53:39.642Z,16.78
2022-09-23T03:56:03.278Z,16.49
2022-09-23T03:58:26.556Z,16.68
2022-09-23T04:00:50.339Z,16.68
2022-09-23T04:03:13.538Z,16.46
2022-09-23T04:05:38.088Z,16.32
2022-09-23T04:08:01.438Z,16.65
2022-09-23T04:10:24.607Z,16.48
2022-09-23T04:12:47.782Z,16.63
2022-09-23T04:15:11.973Z,16.43
2022-09-23T04:17:35.139Z,16.45
2022-09-23T04:19:58.283Z,16.45
2022-09-23T04:22:22.915Z,16.43
2022-09-23T04:24:45.838Z,16.33
2022-09-23T04:27:09.095Z,16.41
2022-09-23T04:29:32.259Z,16.32
2022-09-23T04:31:55.628Z,16.17
2022-09-23T04:34:19.346Z,16.12
2022-09-23T04:36:42.491Z,16.07
2022-09-23T04:39:07.219Z,16.12
2022-09-23T04:41:30.785Z,15.92
2022-09-23T04:43:53.990Z,15.87
2022-09-23T04:46:17.252Z,15.93
2022-09-23T04:48:41.450Z,16.00
2022-09-23T04:51:05.158Z,15.93
2022-09-23T04:53:29.382Z,16.05
2022-09-23T04:55:54.037Z,15.90
2022-09-23T04:58:17.548Z,16.00
2022-09-23T05:00:40.874Z,15.90
2022-09-23T05:03:04.131Z,16.05
2022-09-23T05:05:28.150Z,16.44
2022-09-23T05:07:51.700Z,16.26
2022-09-23T05:10:14.973Z,16.47
2022-09-23T05:12:39.581Z,16.87
2022-09-23T05:15:02.832Z,17.14
2022-09-23T05:17:25.974Z,17.16
2022-09-23T05:19:49.192Z,16.82
2022-09-23T05:22:12.416Z,16.85
2022-09-23T05:24:35.646Z,16.49
2022-09-23T05:26:58.812Z,16.68
2022-09-23T05:29:23.328Z,16.76
2022-09-23T05:31:46.399Z,16.83
2022-09-23T05:34:09.786Z,16.92
2022-09-23T05:36:37.846Z,17.20
2022-09-23T05:39:02.275Z,17.38
2022-09-23T05:41:25.888Z,17.60
2022-09-23T05:43:49.048Z,17.17
2022-09-23T05:46:14.224Z,17.25
2022-09-23T05:48:37.493Z,17.45
2022-09-23T05:51:00.849Z,17.58
2022-09-23T05:53:23.979Z,17.75
2022-09-23T05:55:47.227Z,17.90
2022-09-23T05:58:10.377Z,17.99
2022-09-23T06:00:33.669Z,18.01
2022-09-23T06:02:58.292Z,18.07
2022-09-23T06:05:21.510Z,18.03
2022-09-23T06:07:44.903Z,17.70
2022-09-23T06:10:08.697Z,17.43
2022-09-23T06:12:31.939Z,17.75
2022-09-23T06:14:55.133Z,17.88
2022-09-23T06:17:18.385Z,17.77
2022-09-23T06:19:42.925Z,17.49
2022-09-23T06:22:05.962Z,17.25
2022-09-23T06:24:31.502Z,17.16
2022-09-23T06:26:55.267Z,17.06
2022-09-23T06:29:18.841Z,17.08
2022-09-23T06:31:43.431Z,16.98
2022-09-23T06:34:11.912Z,17.05
2022-09-23T06:36:42.989Z,17.00
2022-09-23T06:39:08.013Z,17.08
2022-09-23T06:41:31.236Z,16.95
2022-09-23T06:43:54.560Z,17.17
2022-09-23T06:46:18.146Z,17.43
2022-09-23T06:48:46.039Z,17.27
2022-09-23T06:51:12.289Z,17.35
2022-09-23T06:53:37.171Z,17.51
2022-09-23T06:56:02.521Z,17.63
2022-09-23T06:58:26.842Z,17.64
2022-09-23T07:00:50.102Z,17.59
2022-09-23T07:03:13.237Z,17.62
2022-09-23T07:05:36.917Z,17.78
2022-09-23T07:08:00.319Z,17.76
2022-09-23T07:10:24.848Z,17.71
2022-09-23T07:12:48.132Z,17.72
2022-09-23T07:15:12.293Z,17.72
2022-09-23T07:17:36.090Z,17.74
2022-09-23T07:19:59.343Z,17.86
2022-09-23T07:22:22.510Z,18.06
2022-09-23T07:24:46.584Z,18.10
2022-09-23T07:27:11.272Z,18.00
2022-09-23T07:29:44.160Z,18.09
2022-09-23T07:32:13.623Z,18.16
2022-09-23T07:34:37.374Z,18.16
2022-09-23T07:37:00.579Z,18.14
2022-09-23T07:39:23.907Z,18.17
2022-09-23T07:41:47.162Z,18.23
2022-09-23T07:44:11.817Z,18.26
2022-09-23T07:46:36.225Z,18.09
2022-09-23T07:48:59.524Z,18.02
2022-09-23T07:51:26.739Z,17.87
2022-09-23T07:53:50.050Z,17.93
2022-09-23T07:56:13.602Z,18.11
2022-09-23T07:58:36.821Z,18.12
2022-09-23T08:01:04.964Z,18.01
2022-09-23T08:03:28.506Z,18.06
2022-09-23T08:05:53.369Z,18.20
2022-09-23T08:08:17.318Z,18.24
2022-09-23T08:10:40.569Z,18.27
2022-09-23T08:13:03.722Z,18.23
2022-09-23T08:15:28.409Z,18.14
2022-09-23T08:17:53.072Z,18.05
2022-09-23T08:20:36.008Z,18.00
2022-09-23T08:22:59.123Z,18.12
2022-09-23T08:25:22.834Z,18.17
2022-09-23T08:27:46.213Z,18.24
2022-09-23T08:30:10.803Z,18.27
2022-09-23T08:32:33.765Z,18.14
2022-09-23T08:34:58.350Z,18.09
2022-09-23T08:37:21.318Z,18.19
2022-09-23T08:39:44.696Z,18.31
2022-09-23T08:42:13.779Z,18.22
2022-09-23T08:44:47.079Z,18.08
2022-09-23T08:47:12.072Z,18.24
2022-09-23T08:49:39.431Z,18.36
2022-09-23T08:52:07.657Z,18.27
2022-09-23T08:54:30.899Z,18.30
2022-09-23T08:56:55.753Z,18.38
2022-09-23T08:59:21.042Z,18.48
2022-09-23T09:01:45.682Z,18.51
2022-09-23T09:04:18.720Z,18.51
2022-09-23T09:06:52.868Z,18.45
2022-09-23T09:09:24.549Z,18.53
2022-09-23T09:11:48.766Z,18.44
2022-09-23T09:14:18.847Z,18.49
2022-09-23T09:17:00.728Z,18.34
2022-09-23T09:19:38.233Z,18.30
2022-09-23T09:22:01.418Z,18.44
2022-09-23T09:24:30.353Z,18.51
2022-09-23T09:26:53.594Z,18.59
2022-09-23T09:29:34.361Z,18.47
2022-09-23T09:31:58.859Z,18.52
2022-09-23T09:34:27.528Z,18.50
2022-09-23T09:36:52.269Z,18.58
2022-09-23T09:39:15.804Z,18.58
2022-09-23T09:41:41.954Z,18.66
2022-09-23T09:44:10.339Z,18.76
2022-09-23T09:47:01.603Z,18.79
2022-09-23T09:49:31.108Z,18.76
2022-09-23T09:52:12.558Z,18.90
2022-09-23T09:54:35.784Z,18.78
2022-09-23T09:57:00.288Z,18.79
2022-09-23T09:59:25.541Z,18.83
2022-09-23T10:01:48.726Z,18.89
2022-09-23T10:04:22.450Z,18.94
2022-09-23T10:06:45.912Z,18.96
2022-09-23T10:09:14.097Z,18.98
2022-09-23T10:11:37.442Z,19.00
2022-09-23T10:14:12.680Z,19.01
2022-09-23T10:16:35.944Z,19.03
2022-09-23T10:18:59.300Z,19.05
2022-09-23T10:21:27.756Z,19.07
2022-09-23T10:23:52.599Z,19.07
2022-09-23T10:26:17.476Z,19.08
2022-09-23T10:28:43.095Z,19.08
2022-09-23T10:31:08.658Z,19.10
2022-09-23T10:33:32.595Z,19.10
2022-09-23T10:35:57.225Z,19.11
2022-09-23T10:38:20.538Z,19.11
2022-09-23T10:41:02.119Z,19.12
2022-09-23T10:43:46.261Z,19.12
2022-09-23T10:46:34.512Z,19.15
2022-09-23T10:49:08.991Z,19.12
2022-09-23T10:51:35.961Z,19.15
2022-09-23T10:54:01.517Z,19.16
2022-09-23T10:56:30.600Z,19.15
2022-09-23T10:59:21.442Z,19.17
2022-09-23T11:01:50.638Z,19.16
2022-09-23T11:04:33.116Z,19.17
2022-09-23T11:07:07.412Z,19.17
2022-09-23T11:09:34.902Z,19.15
2022-09-23T11:12:08.421Z,19.16
2022-09-23T11:14:42.216Z,19.16
2022-09-23T11:17:15.704Z,19.16
2022-09-23T11:20:10.614Z,19.17
2022-09-23T11:22:45.674Z,19.16
2022-09-23T11:25:19.334Z,19.17
2022-09-23T11:27:52.096Z,19.17
2022-09-23T11:30:15.986Z,19.17
2022-09-23T11:35:28.052Z,19.17
2022-09-23T11:37:51.930Z,19.20
2022-09-23T11:40:17.962Z,19.19
2022-09-23T11:42:43.726Z,19.20
2022-09-23T11:45:08.424Z,19.22
2022-09-23T11:47:34.332Z,19.20
2022-09-23T11:50:03.988Z,19.20
2022-09-23T11:52:28.819Z,19.13
2022-09-23T11:54:53.077Z,19.19
2022-09-23T11:57:46.072Z,19.20
2022-09-23T12:00:15.894Z,19.15
2022-09-23T12:03:00.995Z,19.18
2022-09-23T12:05:30.063Z,19.18
2022-09-23T12:07:56.735Z,19.10
2022-09-23T12:10:19.986Z,19.17
2022-09-23T12:12:47.783Z,18.97
2022-09-23T12:15:14.856Z,18.62
2022-09-23T12:18:26.415Z,18.40
2022-09-23T12:21:07.707Z,18.20
2022-09-23T12:23:42.083Z,18.05
2022-09-23T12:26:05.933Z,18.10
2022-09-23T12:28:31.223Z,17.84
2022-09-23T12:30:55.332Z,17.81
2022-09-23T12:33:24.830Z,17.80
2022-09-23T12:35:48.089Z,18.12
2022-09-23T12:38:19.510Z,18.16
2022-09-23T12:40:44.601Z,17.99
2022-09-23T12:43:12.205Z,18.17
2022-09-23T12:45:37.797Z,18.30
2022-09-23T12:48:01.064Z,18.34
2022-09-23T12:50:53.140Z,18.13
2022-09-23T12:53:53.257Z,18.07
2022-09-23T12:56:18.926Z,17.91
2022-09-23T12:58:58.933Z,18.00
2022-09-23T13:01:22.425Z,18.16
2022-09-23T13:04:04.608Z,18.34
2022-09-23T13:06:41.313Z,18.49
2022-09-23T13:09:04.596Z,18.53
2022-09-23T13:11:30.522Z,18.61
2022-09-23T13:13:53.784Z,18.68
2022-09-23T13:16:22.359Z,18.61
2022-09-23T13:18:55.493Z,18.68
2022-09-23T13:21:20.125Z,18.72
2022-09-23T13:23:43.087Z,18.73
2022-09-23T13:26:12.190Z,18.78
2022-09-23T13:28:38.334Z,18.82
2022-09-23T13:31:05.259Z,18.79
2022-09-23T13:33:31.981Z,18.77
2022-09-23T13:35:57.094Z,18.80
2022-09-23T13:38:26.209Z,18.68
2022-09-23T13:40:49.588Z,18.80
2022-09-23T13:43:18.919Z,18.84
2022-09-23T13:45:44.242Z,18.94
2022-09-23T13:48:08.601Z,18.96
2022-09-23T13:50:35.075Z,18.98
2022-09-23T13:52:59.075Z,19.00
2022-09-23T13:55:30.157Z,19.03
2022-09-23T13:57:59.175Z,19.06
2022-09-23T14:00:23.783Z,19.08
2022-09-23T14:02:48.082Z,19.08
2022-09-23T14:05:12.498Z,19.08
2022-09-23T14:07:35.644Z,19.07
2022-09-23T14:09:58.883Z,19.10
2022-09-23T14:12:23.011Z,19.11
2022-09-23T14:14:46.535Z,19.13
2022-09-23T14:17:10.169Z,19.13
2022-09-23T14:19:34.811Z,19.14
2022-09-23T14:21:58.889Z,19.15
2022-09-23T14:24:24.380Z,19.16
2022-09-23T14:26:48.513Z,19.15
2022-09-23T14:29:15.159Z,19.16
2022-09-23T14:31:38.649Z,19.17
2022-09-23T14:34:01.847Z,19.18
2022-09-23T14:36:44.037Z,19.17
2022-09-23T14:39:08.392Z,19.17
2022-09-23T14:41:31.515Z,19.17
2022-09-23T14:43:57.213Z,19.17
2022-09-23T14:46:20.944Z,19.17
2022-09-23T14:48:44.232Z,19.18
2022-09-23T14:51:12.005Z,19.14
2022-09-23T14:53:41.430Z,19.14
2022-09-23T14:56:18.446Z,19.13
2022-09-23T14:58:51.696Z,19.01
2022-09-23T15:01:34.853Z,18.81
2022-09-23T15:03:58.408Z,18.82
2022-09-23T15:06:21.567Z,18.79
2022-09-23T15:08:46.240Z,18.86
2022-09-23T15:11:09.194Z,18.90
2022-09-23T15:13:33.932Z,18.99
2022-09-23T15:15:57.147Z,19.04
2022-09-23T15:18:22.365Z,19.10
2022-09-23T15:20:50.567Z,19.13
2022-09-23T15:23:35.296Z,19.16
2022-09-23T15:26:00.167Z,19.17
2022-09-23T15:28:27.219Z,19.18
2022-09-23T15:30:50.416Z,19.18
2022-09-23T15:33:13.977Z,19.16
2022-09-23T15:35:37.406Z,18.94
2022-09-23T15:38:01.853Z,18.83
2022-09-23T15:40:25.434Z,18.94
2022-09-23T15:42:51.614Z,18.93
2022-09-23T15:45:15.159Z,18.66
2022-09-23T15:47:38.306Z,18.52
2022-09-23T15:50:01.460Z,18.35
2022-09-23T15:52:24.791Z,18.30
2022-09-23T15:54:48.016Z,18.23
2022-09-23T15:57:11.300Z,18.18
2022-09-23T15:59:38.233Z,17.99
2022-09-23T16:02:04.283Z,18.08
2022-09-23T16:04:28.539Z,18.08
2022-09-23T16:06:51.775Z,17.95
2022-09-23T16:09:15.127Z,17.96
2022-09-23T16:11:38.325Z,17.96
2022-09-23T16:14:01.600Z,17.77
2022-09-23T16:16:27.798Z,17.89
2022-09-23T16:18:51.447Z,17.86
2022-09-23T16:21:15.109Z,17.82
2022-09-23T16:23:38.922Z,17.82
2022-09-23T16:26:03.867Z,17.73
2022-09-23T16:28:27.080Z,17.74
2022-09-23T16:30:50.237Z,17.74
2022-09-23T16:33:14.894Z,17.64
2022-09-23T16:35:37.851Z,17.48
2022-09-23T16:38:01.047Z,17.42
2022-09-23T16:40:24.716Z,17.32
2022-09-23T16:42:47.959Z,17.35
2022-09-23T16:45:12.154Z,17.36
2022-09-23T16:47:35.387Z,17.29
2022-09-23T16:49:59.899Z,17.19
2022-09-23T16:52:22.840Z,17.11
2022-09-23T16:54:48.067Z,17.21
2022-09-23T16:57:13.351Z,17.10
2022-09-23T16:59:50.446Z,17.17
2022-09-23T17:02:31.074Z,17.02
2022-09-23T17:04:54.577Z,17.08
2022-09-23T17:07:19.113Z,17.25
2022-09-23T17:09:42.057Z,17.40
2022-09-23T17:12:07.758Z,17.18
2022-09-23T17:14:31.098Z,17.12
2022-09-23T17:16:54.342Z,17.18
2022-09-23T17:19:17.525Z,17.23
2022-09-23T17:21:40.758Z,17.15
2022-09-23T17:24:05.886Z,17.01
2022-09-23T17:26:29.200Z,16.97
2022-09-23T17:28:54.349Z,16.95
2022-09-23T17:31:17.511Z,16.91
2022-09-23T17:33:41.253Z,16.95
2022-09-23T17:36:08.058Z,16.94
2022-09-23T17:38:31.274Z,16.86
2022-09-23T17:40:56.955Z,16.93
2022-09-23T17:43:23.636Z,16.97
2022-09-23T17:45:46.786Z,16.99
2022-09-23T17:48:10.024Z,16.94
2022-09-23T17:50:33.186Z,16.87
2022-09-23T17:52:56.923Z,16.98
2022-09-23T17:55:20.085Z,16.98
2022-09-23T17:57:44.643Z,16.93
2022-09-23T18:00:10.198Z,16.79
2022-09-23T18:02:35.972Z,16.78
2022-09-23T18:04:59.130Z,16.76
2022-09-23T18:07:22.336Z,16.78
2022-09-23T18:09:45.515Z,16.66
2022-09-23T18:12:08.823Z,16.79
2022-09-23T18:14:33.419Z,16.81
2022-09-23T18:16:56.363Z,16.75
2022-09-23T18:19:20.511Z,16.82
2022-09-23T18:21:45.101Z,16.85
2022-09-23T18:26:52.959Z,16.94
2022-09-23T18:29:16.139Z,16.85
2022-09-23T18:31:41.272Z,16.85
2022-09-23T18:34:06.431Z,16.81
2022-09-23T18:36:29.783Z,16.71
2022-09-23T18:38:53.123Z,16.71
2022-09-23T18:41:16.479Z,16.83
2022-09-23T18:43:43.145Z,16.80
2022-09-23T18:46:09.174Z,16.77
2022-09-23T18:48:52.107Z,16.82
2022-09-23T18:51:16.630Z,16.86
2022-09-23T18:53:40.118Z,16.83
2022-09-23T18:56:06.743Z,16.85
2022-09-23T18:58:30.179Z,16.93
2022-09-23T19:00:53.567Z,17.08
2022-09-23T19:03:17.834Z,17.15
2022-09-23T19:05:42.446Z,17.36
2022-09-23T19:08:05.909Z,17.14
2022-09-23T19:10:29.362Z,17.20
2022-09-23T19:12:52.703Z,17.26
2022-09-23T19:15:16.223Z,17.07
2022-09-23T19:17:39.695Z,17.15
2022-09-23T19:20:03.498Z,16.88
2022-09-23T19:22:30.092Z,16.98
2022-09-23T19:24:53.481Z,16.95
2022-09-23T19:27:16.899Z,17.14
2022-09-23T19:29:40.558Z,17.28
2022-09-23T19:32:04.207Z,17.07
2022-09-23T19:34:29.335Z,16.87
2022-09-23T19:36:52.964Z,17.03
2022-09-23T19:39:18.510Z,17.17
2022-09-23T19:41:41.660Z,17.28
2022-09-23T19:44:07.657Z,17.25
2022-09-23T19:46:32.483Z,17.20
2022-09-23T19:48:55.995Z,17.49
2022-09-23T19:51:19.401Z,17.38
2022-09-23T19:53:43.053Z,17.11
2022-09-23T19:56:08.089Z,17.00
2022-09-23T19:58:31.289Z,17.02
2022-09-23T20:00:54.616Z,16.88
2022-09-23T20:03:18.315Z,17.03
2022-09-23T20:05:41.606Z,17.15
2022-09-23T20:08:05.130Z,17.14
2022-09-23T20:10:28.354Z,17.38
2022-09-23T20:12:52.975Z,17.11
2022-09-23T20:15:16.440Z,17.12
2022-09-23T20:17:40.118Z,17.14
2022-09-23T20:20:03.335Z,17.36
2022-09-23T20:22:32.982Z,17.10
2022-09-23T20:24:57.054Z,17.17
2022-09-23T20:27:19.189Z,17.08
2022-09-23T20:29:43.838Z,17.09
2022-09-23T20:32:06.821Z,17.21
2022-09-23T20:34:33.308Z,17.26
2022-09-23T20:36:56.637Z,17.26
2022-09-23T20:39:19.873Z,17.26
2022-09-23T20:41:43.002Z,17.26
2022-09-23T20:44:07.981Z,17.27
2022-09-23T20:46:32.665Z,17.24
2022-09-23T20:48:56.729Z,17.06
2022-09-23T20:51:19.955Z,17.13
2022-09-23T20:53:43.166Z,17.06
2022-09-23T20:56:07.034Z,17.13
2022-09-23T20:58:30.901Z,17.19
2022-09-23T21:00:54.197Z,17.00
2022-09-23T21:03:18.767Z,17.08
2022-09-23T21:05:42.222Z,17.12
2022-09-23T21:08:05.462Z,17.22
2022-09-23T21:10:28.772Z,17.03
2022-09-23T21:12:51.923Z,17.06
2022-09-23T21:15:15.255Z,16.96
2022-09-23T21:17:38.436Z,16.89
2022-09-23T21:20:04.647Z,16.80
2022-09-23T21:22:27.771Z,16.80
2022-09-23T21:25:26.334Z,17.03
2022-09-23T21:27:37.195Z,16.78
2022-09-23T21:30:00.494Z,16.88
2022-09-23T21:32:23.675Z,16.86
2022-09-23T21:34:46.955Z,16.97
2022-09-23T21:37:11.609Z,16.93
2022-09-23T21:39:34.529Z,16.83
2022-09-23T21:41:57.885Z,16.73
2022-09-23T21:44:21.081Z,16.85
2022-09-23T21:46:44.323Z,16.60
2022-09-23T21:49:09.153Z,16.68
2022-09-23T21:51:40.493Z,16.71
2022-09-23T21:54:06.158Z,16.63
2022-09-23T21:56:29.938Z,16.54
2022-09-23T21:58:54.188Z,16.22
2022-09-23T22:01:18.285Z,16.35
2022-09-23T22:03:41.635Z,16.35
2022-09-23T22:06:06.235Z,16.35
2022-09-23T22:08:31.750Z,16.35
2022-09-23T22:10:56.275Z,16.32
2022-09-23T22:13:19.306Z,16.21
2022-09-23T22:15:42.537Z,16.06
2022-09-23T22:18:06.677Z,15.92
2022-09-23T22:20:29.963Z,16.01
2022-09-23T22:22:53.196Z,15.89
2022-09-23T22:25:16.573Z,15.77
2022-09-23T22:28:01.190Z,15.73
2022-09-23T22:30:41.841Z,15.83
2022-09-23T22:33:07.045Z,15.76
2022-09-23T22:35:30.196Z,15.83
2022-09-23T22:37:53.495Z,15.78
2022-09-23T22:40:16.819Z,15.76
2022-09-23T22:42:42.361Z,15.84
2022-09-23T22:45:06.449Z,15.87
2022-09-23T22:47:29.635Z,15.91
2022-09-23T22:49:54.631Z,15.82
2022-09-23T22:52:24.103Z,15.76
2022-09-23T22:54:47.335Z,15.88
2022-09-23T22:57:10.539Z,15.71
2022-09-23T22:59:35.163Z,15.81
2022-09-23T23:01:58.137Z,15.81
2022-09-23T23:04:21.976Z,15.87
2022-09-23T23:06:45.722Z,15.81
2022-09-23T23:09:10.370Z,15.82
2022-09-23T23:11:33.533Z,15.92
2022-09-23T23:13:59.613Z,15.93
2022-09-23T23:16:25.397Z,15.81
2022-09-23T23:18:48.591Z,15.78
2022-09-23T23:21:12.870Z,15.66
2022-09-23T23:23:39.783Z,15.63
2022-09-23T23:26:09.798Z,15.67
2022-09-23T23:28:33.219Z,15.67
2022-09-23T23:30:56.428Z,15.76
2022-09-23T23:33:21.124Z,15.85
2022-09-23T23:35:51.009Z,15.70
2022-09-23T23:38:14.264Z,15.52
2022-09-23T23:40:38.324Z,15.46
2022-09-23T23:43:02.139Z,15.50
2022-09-23T23:45:25.365Z,15.53
2022-09-23T23:47:48.491Z,15.65
2022-09-23T23:50:13.072Z,15.46
2022-09-23T23:52:36.013Z,15.65
2022-09-23T23:54:59.126Z,15.69
2022-09-23T23:57:22.390Z,15.73
2022-09-23T23:59:45.526Z,15.68
